sensor_id;sensor_type;location;lat;lon;timestamp;temperature;humidity
65598;SHT31;52267;51.984;20.956;2023-04-06T00:00:41;1.63;65.81
65598;SHT31;52267;51.984;20.956;2023-04-06T00:03:16;1.66;65.56
65598;SHT31;52267;51.984;20.956;2023-04-06T00:05:43;1.68;65.60
65598;SHT31;52267;51.984;20.956;2023-04-06T00:08:10;1.70;65.45
65598;SHT31;52267;51.984;20.956;2023-04-06T00:10:37;1.68;65.62
65598;SHT31;52267;51.984;20.956;2023-04-06T00:13:04;1.68;65.90
65598;SHT31;52267;51.984;20.956;2023-04-06T00:15:33;1.68;65.75
65598;SHT31;52267;51.984;20.956;2023-04-06T00:18:01;1.72;65.29
65598;SHT31;52267;51.984;20.956;2023-04-06T00:20:29;1.74;65.06
65598;SHT31;52267;51.984;20.956;2023-04-06T00:22:56;1.76;64.89
65598;SHT31;52267;51.984;20.956;2023-04-06T00:25:23;1.76;64.71
65598;SHT31;52267;51.984;20.956;2023-04-06T00:27:51;1.78;64.57
65598;SHT31;52267;51.984;20.956;2023-04-06T00:30:18;1.79;64.64
65598;SHT31;52267;51.984;20.956;2023-04-06T00:32:46;1.81;64.46
65598;SHT31;52267;51.984;20.956;2023-04-06T00:35:13;1.82;64.19
65598;SHT31;52267;51.984;20.956;2023-04-06T00:37:41;1.84;63.93
65598;SHT31;52267;51.984;20.956;2023-04-06T00:40:08;1.86;63.74
65598;SHT31;52267;51.984;20.956;2023-04-06T00:42:39;1.88;63.66
65598;SHT31;52267;51.984;20.956;2023-04-06T00:45:07;1.89;63.57
65598;SHT31;52267;51.984;20.956;2023-04-06T00:47:35;1.90;63.55
65598;SHT31;52267;51.984;20.956;2023-04-06T00:50:02;1.93;63.49
65598;SHT31;52267;51.984;20.956;2023-04-06T00:52:30;1.94;63.27
65598;SHT31;52267;51.984;20.956;2023-04-06T00:54:57;1.93;63.16
65598;SHT31;52267;51.984;20.956;2023-04-06T00:57:24;1.95;63.20
65598;SHT31;52267;51.984;20.956;2023-04-06T00:59:51;1.96;63.09
65598;SHT31;52267;51.984;20.956;2023-04-06T01:02:19;1.98;63.00
65598;SHT31;52267;51.984;20.956;2023-04-06T01:04:46;1.99;62.91
65598;SHT31;52267;51.984;20.956;2023-04-06T01:07:13;1.97;62.87
65598;SHT31;52267;51.984;20.956;2023-04-06T01:09:40;1.97;62.80
65598;SHT31;52267;51.984;20.956;2023-04-06T01:12:08;1.98;62.63
65598;SHT31;52267;51.984;20.956;2023-04-06T01:14:36;1.98;62.66
65598;SHT31;52267;51.984;20.956;2023-04-06T01:17:05;1.99;62.66
65598;SHT31;52267;51.984;20.956;2023-04-06T01:19:35;1.98;62.48
65598;SHT31;52267;51.984;20.956;2023-04-06T01:22:03;1.98;62.36
65598;SHT31;52267;51.984;20.956;2023-04-06T01:24:30;1.99;62.22
65598;SHT31;52267;51.984;20.956;2023-04-06T01:26:57;2.00;62.25
65598;SHT31;52267;51.984;20.956;2023-04-06T01:29:24;2.01;62.25
65598;SHT31;52267;51.984;20.956;2023-04-06T01:31:51;2.00;62.30
65598;SHT31;52267;51.984;20.956;2023-04-06T01:34:18;2.01;62.23
65598;SHT31;52267;51.984;20.956;2023-04-06T01:36:49;2.02;62.14
65598;SHT31;52267;51.984;20.956;2023-04-06T01:39:16;2.02;62.06
65598;SHT31;52267;51.984;20.956;2023-04-06T01:41:44;2.02;62.13
65598;SHT31;52267;51.984;20.956;2023-04-06T01:44:11;2.02;62.14
65598;SHT31;52267;51.984;20.956;2023-04-06T01:46:38;2.04;62.17
65598;SHT31;52267;51.984;20.956;2023-04-06T01:49:05;2.05;62.07
65598;SHT31;52267;51.984;20.956;2023-04-06T01:51:32;2.06;62.12
65598;SHT31;52267;51.984;20.956;2023-04-06T01:53:59;2.04;62.13
65598;SHT31;52267;51.984;20.956;2023-04-06T01:56:26;2.03;62.13
65598;SHT31;52267;51.984;20.956;2023-04-06T01:58:53;2.01;62.33
65598;SHT31;52267;51.984;20.956;2023-04-06T02:01:21;1.99;62.34
65598;SHT31;52267;51.984;20.956;2023-04-06T02:03:48;2.00;62.37
65598;SHT31;52267;51.984;20.956;2023-04-06T02:06:15;2.00;62.40
65598;SHT31;52267;51.984;20.956;2023-04-06T02:08:42;2.00;62.37
65598;SHT31;52267;51.984;20.956;2023-04-06T02:11:10;2.00;62.34
65598;SHT31;52267;51.984;20.956;2023-04-06T02:13:37;1.98;62.24
65598;SHT31;52267;51.984;20.956;2023-04-06T02:16:04;1.97;62.36
65598;SHT31;52267;51.984;20.956;2023-04-06T02:18:31;1.98;62.52
65598;SHT31;52267;51.984;20.956;2023-04-06T02:20:58;1.98;62.61
65598;SHT31;52267;51.984;20.956;2023-04-06T02:23:25;1.97;62.78
65598;SHT31;52267;51.984;20.956;2023-04-06T02:25:53;1.94;62.92
65598;SHT31;52267;51.984;20.956;2023-04-06T02:28:20;1.91;62.93
65598;SHT31;52267;51.984;20.956;2023-04-06T02:30:47;1.90;62.93
65598;SHT31;52267;51.984;20.956;2023-04-06T02:33:14;1.90;62.94
65598;SHT31;52267;51.984;20.956;2023-04-06T02:35:41;1.85;63.07
65598;SHT31;52267;51.984;20.956;2023-04-06T02:38:08;1.82;63.22
65598;SHT31;52267;51.984;20.956;2023-04-06T02:40:35;1.79;63.22
65598;SHT31;52267;51.984;20.956;2023-04-06T02:43:02;1.76;63.29
65598;SHT31;52267;51.984;20.956;2023-04-06T02:45:29;1.73;63.29
65598;SHT31;52267;51.984;20.956;2023-04-06T02:47:56;1.70;63.28
65598;SHT31;52267;51.984;20.956;2023-04-06T02:50:23;1.68;63.29
65598;SHT31;52267;51.984;20.956;2023-04-06T02:52:51;1.66;63.38
65598;SHT31;52267;51.984;20.956;2023-04-06T02:55:19;1.66;63.45
65598;SHT31;52267;51.984;20.956;2023-04-06T02:57:46;1.64;63.36
65598;SHT31;52267;51.984;20.956;2023-04-06T03:00:13;1.64;63.37
65598;SHT31;52267;51.984;20.956;2023-04-06T03:02:40;1.63;63.34
65598;SHT31;52267;51.984;20.956;2023-04-06T03:05:08;1.62;63.26
65598;SHT31;52267;51.984;20.956;2023-04-06T03:07:35;1.61;63.20
65598;SHT31;52267;51.984;20.956;2023-04-06T03:10:02;1.61;63.26
65598;SHT31;52267;51.984;20.956;2023-04-06T03:12:29;1.60;63.27
65598;SHT31;52267;51.984;20.956;2023-04-06T03:14:56;1.60;63.23
65598;SHT31;52267;51.984;20.956;2023-04-06T03:17:23;1.60;63.29
65598;SHT31;52267;51.984;20.956;2023-04-06T03:19:50;1.60;63.21
65598;SHT31;52267;51.984;20.956;2023-04-06T03:22:17;1.59;63.20
65598;SHT31;52267;51.984;20.956;2023-04-06T03:24:44;1.60;63.14
65598;SHT31;52267;51.984;20.956;2023-04-06T03:27:11;1.61;63.17
65598;SHT31;52267;51.984;20.956;2023-04-06T03:29:38;1.60;63.20
65598;SHT31;52267;51.984;20.956;2023-04-06T03:32:05;1.57;63.24
65598;SHT31;52267;51.984;20.956;2023-04-06T03:34:32;1.57;63.37
65598;SHT31;52267;51.984;20.956;2023-04-06T03:36:59;1.55;63.43
65598;SHT31;52267;51.984;20.956;2023-04-06T03:39:26;1.52;63.56
65598;SHT31;52267;51.984;20.956;2023-04-06T03:41:53;1.51;63.57
65598;SHT31;52267;51.984;20.956;2023-04-06T03:44:20;1.51;63.60
65598;SHT31;52267;51.984;20.956;2023-04-06T03:46:48;1.49;63.50
65598;SHT31;52267;51.984;20.956;2023-04-06T03:49:15;1.47;63.59
65598;SHT31;52267;51.984;20.956;2023-04-06T03:51:42;1.47;63.64
65598;SHT31;52267;51.984;20.956;2023-04-06T03:54:09;1.45;63.58
65598;SHT31;52267;51.984;20.956;2023-04-06T03:56:36;1.45;63.57
65598;SHT31;52267;51.984;20.956;2023-04-06T03:59:03;1.43;63.60
65598;SHT31;52267;51.984;20.956;2023-04-06T04:01:30;1.41;63.59
65598;SHT31;52267;51.984;20.956;2023-04-06T04:03:57;1.38;63.63
65598;SHT31;52267;51.984;20.956;2023-04-06T04:06:24;1.38;63.60
65598;SHT31;52267;51.984;20.956;2023-04-06T04:08:52;1.37;63.66
65598;SHT31;52267;51.984;20.956;2023-04-06T04:11:19;1.37;63.72
65598;SHT31;52267;51.984;20.956;2023-04-06T04:13:46;1.35;63.79
65598;SHT31;52267;51.984;20.956;2023-04-06T04:16:13;1.32;63.85
65598;SHT31;52267;51.984;20.956;2023-04-06T04:18:40;1.33;63.86
65598;SHT31;52267;51.984;20.956;2023-04-06T04:21:10;1.32;63.88
65598;SHT31;52267;51.984;20.956;2023-04-06T04:23:37;1.31;63.90
65598;SHT31;52267;51.984;20.956;2023-04-06T04:26:04;1.31;63.89
65598;SHT31;52267;51.984;20.956;2023-04-06T04:28:31;1.31;63.92
65598;SHT31;52267;51.984;20.956;2023-04-06T04:30:58;1.30;64.07
65598;SHT31;52267;51.984;20.956;2023-04-06T04:33:25;1.30;64.16
65598;SHT31;52267;51.984;20.956;2023-04-06T04:35:52;1.31;64.27
65598;SHT31;52267;51.984;20.956;2023-04-06T04:38:20;1.32;64.39
65598;SHT31;52267;51.984;20.956;2023-04-06T04:40:46;1.35;64.42
65598;SHT31;52267;51.984;20.956;2023-04-06T04:43:13;1.39;64.47
65598;SHT31;52267;51.984;20.956;2023-04-06T04:45:41;1.41;64.55
65598;SHT31;52267;51.984;20.956;2023-04-06T04:48:08;1.46;64.62
65598;SHT31;52267;51.984;20.956;2023-04-06T04:50:35;1.50;64.71
65598;SHT31;52267;51.984;20.956;2023-04-06T04:53:02;1.54;64.79
65598;SHT31;52267;51.984;20.956;2023-04-06T04:55:32;1.58;64.80
65598;SHT31;52267;51.984;20.956;2023-04-06T04:58:00;1.63;64.72
65598;SHT31;52267;51.984;20.956;2023-04-06T05:00:27;1.68;64.80
65598;SHT31;52267;51.984;20.956;2023-04-06T05:02:54;1.72;64.84
65598;SHT31;52267;51.984;20.956;2023-04-06T05:05:21;1.73;64.77
65598;SHT31;52267;51.984;20.956;2023-04-06T05:07:48;1.76;64.74
65598;SHT31;52267;51.984;20.956;2023-04-06T05:10:15;1.78;64.76
65598;SHT31;52267;51.984;20.956;2023-04-06T05:12:42;1.79;64.81
65598;SHT31;52267;51.984;20.956;2023-04-06T05:15:10;1.81;64.92
65598;SHT31;52267;51.984;20.956;2023-04-06T05:17:37;1.86;64.95
65598;SHT31;52267;51.984;20.956;2023-04-06T05:20:07;1.90;64.96
65598;SHT31;52267;51.984;20.956;2023-04-06T05:22:35;1.94;64.95
65598;SHT31;52267;51.984;20.956;2023-04-06T05:25:02;1.97;64.99
65598;SHT31;52267;51.984;20.956;2023-04-06T05:27:29;2.01;65.03
65598;SHT31;52267;51.984;20.956;2023-04-06T05:29:57;2.06;64.98
65598;SHT31;52267;51.984;20.956;2023-04-06T05:32:24;2.10;64.94
65598;SHT31;52267;51.984;20.956;2023-04-06T05:34:51;2.14;64.99
65598;SHT31;52267;51.984;20.956;2023-04-06T05:37:18;2.20;64.90
65598;SHT31;52267;51.984;20.956;2023-04-06T05:39:45;2.28;64.88
65598;SHT31;52267;51.984;20.956;2023-04-06T05:42:12;2.36;64.88
65598;SHT31;52267;51.984;20.956;2023-04-06T05:44:39;2.40;64.72
65598;SHT31;52267;51.984;20.956;2023-04-06T05:47:06;2.46;64.62
65598;SHT31;52267;51.984;20.956;2023-04-06T05:49:33;2.52;64.50
65598;SHT31;52267;51.984;20.956;2023-04-06T05:52:01;2.57;64.42
65598;SHT31;52267;51.984;20.956;2023-04-06T05:54:28;2.63;64.22
65598;SHT31;52267;51.984;20.956;2023-04-06T05:56:55;2.70;64.13
65598;SHT31;52267;51.984;20.956;2023-04-06T05:59:22;2.80;64.04
65598;SHT31;52267;51.984;20.956;2023-04-06T06:01:50;2.89;63.94
65598;SHT31;52267;51.984;20.956;2023-04-06T06:04:17;2.93;63.56
65598;SHT31;52267;51.984;20.956;2023-04-06T06:06:44;2.99;63.51
65598;SHT31;52267;51.984;20.956;2023-04-06T06:09:11;3.07;63.38
65598;SHT31;52267;51.984;20.956;2023-04-06T06:11:38;3.13;63.32
65598;SHT31;52267;51.984;20.956;2023-04-06T06:14:05;3.21;63.36
65598;SHT31;52267;51.984;20.956;2023-04-06T06:16:32;3.25;63.19
65598;SHT31;52267;51.984;20.956;2023-04-06T06:18:59;3.30;63.25
65598;SHT31;52267;51.984;20.956;2023-04-06T06:21:26;3.38;63.24
65598;SHT31;52267;51.984;20.956;2023-04-06T06:23:53;3.44;62.94
65598;SHT31;52267;51.984;20.956;2023-04-06T06:26:21;3.49;62.50
65598;SHT31;52267;51.984;20.956;2023-04-06T06:28:48;3.54;62.43
65598;SHT31;52267;51.984;20.956;2023-04-06T06:31:15;3.58;62.23
65598;SHT31;52267;51.984;20.956;2023-04-06T06:33:42;3.62;62.19
65598;SHT31;52267;51.984;20.956;2023-04-06T06:36:09;3.64;61.54
65598;SHT31;52267;51.984;20.956;2023-04-06T06:38:36;3.66;61.76
65598;SHT31;52267;51.984;20.956;2023-04-06T06:41:05;3.70;61.66
65598;SHT31;52267;51.984;20.956;2023-04-06T06:43:32;3.76;61.51
65598;SHT31;52267;51.984;20.956;2023-04-06T06:45:59;3.76;61.10
65598;SHT31;52267;51.984;20.956;2023-04-06T06:48:26;3.75;61.07
65598;SHT31;52267;51.984;20.956;2023-04-06T06:50:53;3.75;60.83
65598;SHT31;52267;51.984;20.956;2023-04-06T06:53:21;3.79;60.82
65598;SHT31;52267;51.984;20.956;2023-04-06T06:55:48;3.85;60.31
65598;SHT31;52267;51.984;20.956;2023-04-06T06:58:17;3.90;60.58
65598;SHT31;52267;51.984;20.956;2023-04-06T07:00:45;3.96;60.30
65598;SHT31;52267;51.984;20.956;2023-04-06T07:03:13;3.97;59.91
65598;SHT31;52267;51.984;20.956;2023-04-06T07:05:46;4.03;60.40
65598;SHT31;52267;51.984;20.956;2023-04-06T07:08:23;4.08;60.23
65598;SHT31;52267;51.984;20.956;2023-04-06T07:10:51;4.08;60.15
65598;SHT31;52267;51.984;20.956;2023-04-06T07:13:19;4.12;60.40
65598;SHT31;52267;51.984;20.956;2023-04-06T07:15:50;4.14;60.02
65598;SHT31;52267;51.984;20.956;2023-04-06T07:18:17;4.21;60.45
65598;SHT31;52267;51.984;20.956;2023-04-06T07:20:46;4.29;60.62
65598;SHT31;52267;51.984;20.956;2023-04-06T07:23:13;4.34;60.72
65598;SHT31;52267;51.984;20.956;2023-04-06T07:25:40;4.35;60.78
65598;SHT31;52267;51.984;20.956;2023-04-06T07:28:07;4.37;60.43
65598;SHT31;52267;51.984;20.956;2023-04-06T07:30:34;4.43;60.50
65598;SHT31;52267;51.984;20.956;2023-04-06T07:33:01;4.49;60.47
65598;SHT31;52267;51.984;20.956;2023-04-06T07:35:29;4.54;60.25
65598;SHT31;52267;51.984;20.956;2023-04-06T07:37:56;4.59;59.98
65598;SHT31;52267;51.984;20.956;2023-04-06T07:40:24;4.60;59.86
65598;SHT31;52267;51.984;20.956;2023-04-06T07:42:52;4.65;60.11
65598;SHT31;52267;51.984;20.956;2023-04-06T07:45:20;4.72;60.14
65598;SHT31;52267;51.984;20.956;2023-04-06T07:47:47;4.76;60.14
65598;SHT31;52267;51.984;20.956;2023-04-06T07:50:14;4.85;59.58
65598;SHT31;52267;51.984;20.956;2023-04-06T07:52:41;4.92;59.64
65598;SHT31;52267;51.984;20.956;2023-04-06T07:55:08;5.02;59.79
65598;SHT31;52267;51.984;20.956;2023-04-06T07:57:35;5.11;59.96
65598;SHT31;52267;51.984;20.956;2023-04-06T08:00:03;5.20;59.79
65598;SHT31;52267;51.984;20.956;2023-04-06T08:02:34;5.20;59.61
65598;SHT31;52267;51.984;20.956;2023-04-06T08:05:01;5.18;59.70
65598;SHT31;52267;51.984;20.956;2023-04-06T08:07:28;5.21;59.57
65598;SHT31;52267;51.984;20.956;2023-04-06T08:09:55;5.15;58.82
65598;SHT31;52267;51.984;20.956;2023-04-06T08:12:22;5.12;59.20
65598;SHT31;52267;51.984;20.956;2023-04-06T08:14:49;5.05;59.46
65598;SHT31;52267;51.984;20.956;2023-04-06T08:17:16;4.98;59.92
65598;SHT31;52267;51.984;20.956;2023-04-06T08:19:43;4.95;60.12
65598;SHT31;52267;51.984;20.956;2023-04-06T08:22:11;4.87;60.42
65598;SHT31;52267;51.984;20.956;2023-04-06T08:24:38;4.73;60.84
65598;SHT31;52267;51.984;20.956;2023-04-06T08:27:05;4.72;61.02
65598;SHT31;52267;51.984;20.956;2023-04-06T08:29:33;4.71;61.30
65598;SHT31;52267;51.984;20.956;2023-04-06T08:32:00;4.74;61.31
65598;SHT31;52267;51.984;20.956;2023-04-06T08:34:34;4.72;61.35
65598;SHT31;52267;51.984;20.956;2023-04-06T08:37:01;4.73;61.41
65598;SHT31;52267;51.984;20.956;2023-04-06T08:39:28;4.68;61.54
65598;SHT31;52267;51.984;20.956;2023-04-06T08:41:57;4.69;61.56
65598;SHT31;52267;51.984;20.956;2023-04-06T08:44:26;4.69;61.70
65598;SHT31;52267;51.984;20.956;2023-04-06T08:46:53;4.78;61.59
65598;SHT31;52267;51.984;20.956;2023-04-06T08:49:21;4.76;61.58
65598;SHT31;52267;51.984;20.956;2023-04-06T08:51:49;4.71;61.76
65598;SHT31;52267;51.984;20.956;2023-04-06T08:54:17;4.64;62.08
65598;SHT31;52267;51.984;20.956;2023-04-06T08:56:44;4.56;62.37
65598;SHT31;52267;51.984;20.956;2023-04-06T08:59:12;4.54;62.54
65598;SHT31;52267;51.984;20.956;2023-04-06T09:01:40;4.53;62.58
65598;SHT31;52267;51.984;20.956;2023-04-06T09:04:09;4.54;62.55
65598;SHT31;52267;51.984;20.956;2023-04-06T09:06:37;4.56;62.64
65598;SHT31;52267;51.984;20.956;2023-04-06T09:09:06;4.51;62.95
65598;SHT31;52267;51.984;20.956;2023-04-06T09:11:49;4.52;63.00
65598;SHT31;52267;51.984;20.956;2023-04-06T09:14:33;4.52;63.12
65598;SHT31;52267;51.984;20.956;2023-04-06T09:17:04;4.44;63.46
65598;SHT31;52267;51.984;20.956;2023-04-06T09:19:32;4.39;63.64
65598;SHT31;52267;51.984;20.956;2023-04-06T09:22:03;4.36;63.64
65598;SHT31;52267;51.984;20.956;2023-04-06T09:24:43;4.35;64.06
65598;SHT31;52267;51.984;20.956;2023-04-06T09:27:13;4.35;64.42
65598;SHT31;52267;51.984;20.956;2023-04-06T09:29:41;4.34;65.17
65598;SHT31;52267;51.984;20.956;2023-04-06T09:32:10;4.39;64.67
65598;SHT31;52267;51.984;20.956;2023-04-06T09:34:38;4.44;64.61
65598;SHT31;52267;51.984;20.956;2023-04-06T09:37:12;4.46;64.77
65598;SHT31;52267;51.984;20.956;2023-04-06T09:39:40;4.47;64.43
65598;SHT31;52267;51.984;20.956;2023-04-06T09:42:07;4.43;64.95
65598;SHT31;52267;51.984;20.956;2023-04-06T09:44:35;4.36;65.41
65598;SHT31;52267;51.984;20.956;2023-04-06T09:47:03;4.27;65.72
65598;SHT31;52267;51.984;20.956;2023-04-06T09:49:34;4.20;66.41
65598;SHT31;52267;51.984;20.956;2023-04-06T09:52:02;4.15;66.54
65598;SHT31;52267;51.984;20.956;2023-04-06T09:54:31;4.09;66.71
65598;SHT31;52267;51.984;20.956;2023-04-06T09:57:13;4.02;66.62
65598;SHT31;52267;51.984;20.956;2023-04-06T09:59:57;3.90;67.13
65598;SHT31;52267;51.984;20.956;2023-04-06T10:02:56;3.83;68.07
65598;SHT31;52267;51.984;20.956;2023-04-06T10:05:34;3.78;68.11
65598;SHT31;52267;51.984;20.956;2023-04-06T10:08:10;3.72;68.22
65598;SHT31;52267;51.984;20.956;2023-04-06T10:10:38;3.68;68.48
65598;SHT31;52267;51.984;20.956;2023-04-06T10:13:06;3.62;68.55
65598;SHT31;52267;51.984;20.956;2023-04-06T10:15:34;3.56;69.38
65598;SHT31;52267;51.984;20.956;2023-04-06T10:18:01;3.50;69.17
65598;SHT31;52267;51.984;20.956;2023-04-06T10:26:05;3.27;71.92
65598;SHT31;52267;51.984;20.956;2023-04-06T10:28:34;3.20;72.41
65598;SHT31;52267;51.984;20.956;2023-04-06T10:31:05;3.10;72.86
65598;SHT31;52267;51.984;20.956;2023-04-06T10:33:33;3.02;72.44
65598;SHT31;52267;51.984;20.956;2023-04-06T10:39:02;2.93;73.16
65598;SHT31;52267;51.984;20.956;2023-04-06T10:44:17;2.95;72.74
65598;SHT31;52267;51.984;20.956;2023-04-06T10:46:57;2.96;73.32
65598;SHT31;52267;51.984;20.956;2023-04-06T10:49:29;2.93;74.33
65598;SHT31;52267;51.984;20.956;2023-04-06T10:51:56;2.89;74.20
65598;SHT31;52267;51.984;20.956;2023-04-06T10:54:24;2.91;73.85
65598;SHT31;52267;51.984;20.956;2023-04-06T10:56:52;2.90;74.32
65598;SHT31;52267;51.984;20.956;2023-04-06T10:59:20;2.86;74.32
65598;SHT31;52267;51.984;20.956;2023-04-06T11:01:48;2.84;74.72
65598;SHT31;52267;51.984;20.956;2023-04-06T11:04:16;2.80;75.04
65598;SHT31;52267;51.984;20.956;2023-04-06T11:06:47;2.80;74.86
65598;SHT31;52267;51.984;20.956;2023-04-06T11:09:26;2.81;74.75
65598;SHT31;52267;51.984;20.956;2023-04-06T11:11:54;2.82;75.64
65598;SHT31;52267;51.984;20.956;2023-04-06T11:14:23;2.82;75.19
65598;SHT31;52267;51.984;20.956;2023-04-06T11:16:50;2.84;75.35
65598;SHT31;52267;51.984;20.956;2023-04-06T11:19:17;2.83;75.59
65598;SHT31;52267;51.984;20.956;2023-04-06T11:21:45;2.84;76.08
65598;SHT31;52267;51.984;20.956;2023-04-06T11:26:47;2.84;76.89
65598;SHT31;52267;51.984;20.956;2023-04-06T11:29:24;2.83;75.94
65598;SHT31;52267;51.984;20.956;2023-04-06T11:31:54;2.84;75.62
65598;SHT31;52267;51.984;20.956;2023-04-06T11:34:27;2.85;75.77
65598;SHT31;52267;51.984;20.956;2023-04-06T11:39:29;2.89;77.05
65598;SHT31;52267;51.984;20.956;2023-04-06T11:42:00;2.88;77.15
65598;SHT31;52267;51.984;20.956;2023-04-06T11:44:43;2.87;77.88
65598;SHT31;52267;51.984;20.956;2023-04-06T11:47:15;2.90;77.59
65598;SHT31;52267;51.984;20.956;2023-04-06T11:49:43;2.94;77.03
65598;SHT31;52267;51.984;20.956;2023-04-06T11:52:23;2.95;77.71
65598;SHT31;52267;51.984;20.956;2023-04-06T11:54:53;2.95;77.48
65598;SHT31;52267;51.984;20.956;2023-04-06T11:57:23;2.95;77.78
65598;SHT31;52267;51.984;20.956;2023-04-06T11:59:54;2.95;77.01
65598;SHT31;52267;51.984;20.956;2023-04-06T12:02:22;2.96;77.08
65598;SHT31;52267;51.984;20.956;2023-04-06T12:04:49;2.96;77.33
65598;SHT31;52267;51.984;20.956;2023-04-06T12:07:16;2.93;77.64
65598;SHT31;52267;51.984;20.956;2023-04-06T12:09:43;2.95;78.63
65598;SHT31;52267;51.984;20.956;2023-04-06T12:12:10;2.98;78.60
65598;SHT31;52267;51.984;20.956;2023-04-06T12:14:37;3.01;77.63
65598;SHT31;52267;51.984;20.956;2023-04-06T12:17:04;3.01;78.70
65598;SHT31;52267;51.984;20.956;2023-04-06T12:19:31;3.01;77.92
65598;SHT31;52267;51.984;20.956;2023-04-06T12:21:58;3.04;77.63
65598;SHT31;52267;51.984;20.956;2023-04-06T12:24:25;3.06;77.68
65598;SHT31;52267;51.984;20.956;2023-04-06T12:26:55;3.06;77.94
65598;SHT31;52267;51.984;20.956;2023-04-06T12:29:24;3.07;77.31
65598;SHT31;52267;51.984;20.956;2023-04-06T12:31:51;3.09;77.37
65598;SHT31;52267;51.984;20.956;2023-04-06T12:34:19;3.12;77.29
65598;SHT31;52267;51.984;20.956;2023-04-06T12:36:46;3.14;77.55
65598;SHT31;52267;51.984;20.956;2023-04-06T12:39:13;3.16;78.03
65598;SHT31;52267;51.984;20.956;2023-04-06T12:41:42;3.18;77.63
65598;SHT31;52267;51.984;20.956;2023-04-06T12:44:09;3.19;77.65
65598;SHT31;52267;51.984;20.956;2023-04-06T12:46:36;3.20;77.94
65598;SHT31;52267;51.984;20.956;2023-04-06T12:49:03;3.18;77.85
65598;SHT31;52267;51.984;20.956;2023-04-06T12:51:30;3.19;77.90
65598;SHT31;52267;51.984;20.956;2023-04-06T12:53:58;3.19;78.63
65598;SHT31;52267;51.984;20.956;2023-04-06T12:56:25;3.21;78.65
65598;SHT31;52267;51.984;20.956;2023-04-06T12:58:52;3.21;78.81
65598;SHT31;52267;51.984;20.956;2023-04-06T13:01:19;3.20;78.43
65598;SHT31;52267;51.984;20.956;2023-04-06T13:03:47;3.23;78.37
65598;SHT31;52267;51.984;20.956;2023-04-06T13:06:14;3.24;78.83
65598;SHT31;52267;51.984;20.956;2023-04-06T13:08:41;3.25;78.85
65598;SHT31;52267;51.984;20.956;2023-04-06T13:11:09;3.26;78.97
65598;SHT31;52267;51.984;20.956;2023-04-06T13:13:36;3.26;78.97
65598;SHT31;52267;51.984;20.956;2023-04-06T13:16:05;3.26;78.57
65598;SHT31;52267;51.984;20.956;2023-04-06T13:18:34;3.27;78.56
65598;SHT31;52267;51.984;20.956;2023-04-06T13:21:05;3.29;78.21
65598;SHT31;52267;51.984;20.956;2023-04-06T13:23:33;3.30;78.33
65598;SHT31;52267;51.984;20.956;2023-04-06T13:26:02;3.31;78.68
65598;SHT31;52267;51.984;20.956;2023-04-06T13:28:32;3.30;79.28
65598;SHT31;52267;51.984;20.956;2023-04-06T13:31:03;3.34;79.51
65598;SHT31;52267;51.984;20.956;2023-04-06T13:33:34;3.37;79.41
65598;SHT31;52267;51.984;20.956;2023-04-06T13:36:02;3.38;79.81
65598;SHT31;52267;51.984;20.956;2023-04-06T13:38:29;3.39;79.37
65598;SHT31;52267;51.984;20.956;2023-04-06T13:40:57;3.40;79.18
65598;SHT31;52267;51.984;20.956;2023-04-06T13:43:24;3.40;79.06
65598;SHT31;52267;51.984;20.956;2023-04-06T13:45:53;3.39;78.98
65598;SHT31;52267;51.984;20.956;2023-04-06T13:48:22;3.38;79.04
65598;SHT31;52267;51.984;20.956;2023-04-06T13:50:49;3.41;78.86
65598;SHT31;52267;51.984;20.956;2023-04-06T13:53:16;3.40;79.37
65598;SHT31;52267;51.984;20.956;2023-04-06T13:55:51;3.41;79.53
65598;SHT31;52267;51.984;20.956;2023-04-06T13:58:22;3.40;79.43
65598;SHT31;52267;51.984;20.956;2023-04-06T14:00:49;3.38;79.71
65598;SHT31;52267;51.984;20.956;2023-04-06T14:03:17;3.35;79.95
65598;SHT31;52267;51.984;20.956;2023-04-06T14:05:44;3.36;79.50
65598;SHT31;52267;51.984;20.956;2023-04-06T14:08:12;3.37;79.29
65598;SHT31;52267;51.984;20.956;2023-04-06T14:10:39;3.38;79.24
65598;SHT31;52267;51.984;20.956;2023-04-06T14:13:08;3.37;79.74
65598;SHT31;52267;51.984;20.956;2023-04-06T14:15:35;3.39;79.82
65598;SHT31;52267;51.984;20.956;2023-04-06T14:18:02;3.38;79.64
65598;SHT31;52267;51.984;20.956;2023-04-06T14:20:33;3.36;79.78
65598;SHT31;52267;51.984;20.956;2023-04-06T14:23:00;3.33;80.35
65598;SHT31;52267;51.984;20.956;2023-04-06T14:25:28;3.32;80.12
65598;SHT31;52267;51.984;20.956;2023-04-06T14:28:00;3.31;79.98
65598;SHT31;52267;51.984;20.956;2023-04-06T14:30:29;3.28;79.75
65598;SHT31;52267;51.984;20.956;2023-04-06T14:32:57;3.26;80.36
65598;SHT31;52267;51.984;20.956;2023-04-06T14:35:24;3.26;80.10
65598;SHT31;52267;51.984;20.956;2023-04-06T14:37:54;3.26;80.21
65598;SHT31;52267;51.984;20.956;2023-04-06T14:40:23;3.26;80.06
65598;SHT31;52267;51.984;20.956;2023-04-06T14:42:51;3.27;80.05
65598;SHT31;52267;51.984;20.956;2023-04-06T14:45:18;3.27;80.10
65598;SHT31;52267;51.984;20.956;2023-04-06T14:47:47;3.26;80.06
65598;SHT31;52267;51.984;20.956;2023-04-06T14:50:15;3.24;80.43
65598;SHT31;52267;51.984;20.956;2023-04-06T14:52:42;3.24;80.14
65598;SHT31;52267;51.984;20.956;2023-04-06T14:55:09;3.25;80.12
65598;SHT31;52267;51.984;20.956;2023-04-06T14:57:36;3.26;80.52
65598;SHT31;52267;51.984;20.956;2023-04-06T15:00:03;3.26;80.45
65598;SHT31;52267;51.984;20.956;2023-04-06T15:02:32;3.25;80.89
65598;SHT31;52267;51.984;20.956;2023-04-06T15:04:59;3.25;80.64
65598;SHT31;52267;51.984;20.956;2023-04-06T15:07:26;3.26;80.35
65598;SHT31;52267;51.984;20.956;2023-04-06T15:09:53;3.27;80.29
65598;SHT31;52267;51.984;20.956;2023-04-06T15:12:20;3.27;80.58
65598;SHT31;52267;51.984;20.956;2023-04-06T15:14:47;3.27;80.31
65598;SHT31;52267;51.984;20.956;2023-04-06T15:17:14;3.25;81.45
65598;SHT31;52267;51.984;20.956;2023-04-06T15:19:41;3.24;81.49
65598;SHT31;52267;51.984;20.956;2023-04-06T15:22:09;3.25;81.32
65598;SHT31;52267;51.984;20.956;2023-04-06T15:24:37;3.26;80.89
65598;SHT31;52267;51.984;20.956;2023-04-06T15:27:04;3.27;80.73
65598;SHT31;52267;51.984;20.956;2023-04-06T15:29:31;3.25;80.82
65598;SHT31;52267;51.984;20.956;2023-04-06T15:31:59;3.24;80.75
65598;SHT31;52267;51.984;20.956;2023-04-06T15:34:26;3.24;80.86
65598;SHT31;52267;51.984;20.956;2023-04-06T15:36:57;3.22;80.74
65598;SHT31;52267;51.984;20.956;2023-04-06T15:39:27;3.22;80.74
65598;SHT31;52267;51.984;20.956;2023-04-06T15:41:55;3.20;81.34
65598;SHT31;52267;51.984;20.956;2023-04-06T15:44:23;3.19;81.49
65598;SHT31;52267;51.984;20.956;2023-04-06T15:46:51;3.19;81.39
65598;SHT31;52267;51.984;20.956;2023-04-06T15:49:19;3.18;81.48
65598;SHT31;52267;51.984;20.956;2023-04-06T15:51:47;3.17;81.20